createdAt,value
2019-05-09T00:03:10.899Z,2.20
2019-05-09T00:07:18.581Z,2.30
2019-05-09T00:11:26.837Z,2.40
2019-05-09T00:15:35.162Z,2.50
2019-05-09T00:19:43.902Z,2.50
2019-05-09T00:23:54.109Z,2.50
2019-05-09T00:28:04.089Z,2.70
2019-05-09T00:32:34.299Z,2.70
2019-05-09T00:36:43.796Z,2.57
2019-05-09T00:40:58.460Z,2.80
2019-05-09T00:45:04.149Z,3.03
2019-05-09T00:49:17.387Z,3.43
2019-05-09T00:53:25.898Z,3.40
2019-05-09T00:57:34.344Z,3.43
2019-05-09T01:01:43.693Z,3.07
2019-05-09T01:05:51.576Z,3.30
2019-05-09T01:09:59.685Z,3.40
2019-05-09T01:14:08.030Z,3.70
2019-05-09T01:18:16.244Z,3.43
2019-05-09T01:22:23.950Z,3.80
2019-05-09T01:26:33.380Z,3.53
2019-05-09T01:30:43.841Z,3.73
2019-05-09T01:34:53.059Z,3.70
2019-05-09T01:39:03.243Z,3.13
2019-05-09T01:43:10.883Z,3.43
2019-05-09T01:47:19.202Z,3.10
2019-05-09T01:51:27.404Z,3.63
2019-05-09T01:55:53.971Z,4.00
2019-05-09T02:00:04.144Z,3.50
2019-05-09T02:04:13.729Z,3.73
2019-05-09T02:08:23.665Z,4.17
2019-05-09T02:12:33.897Z,4.07
2019-05-09T02:16:59.838Z,4.20
2019-05-09T02:21:11.316Z,4.37
2019-05-09T02:25:18.154Z,3.77
2019-05-09T02:29:26.054Z,3.30
2019-05-09T02:33:36.027Z,3.27
2019-05-09T02:37:44.142Z,2.90
2019-05-09T02:42:04.428Z,3.30
2019-05-09T02:46:10.924Z,4.10
2019-05-09T02:50:19.712Z,4.83
2019-05-09T02:54:29.769Z,4.20
2019-05-09T02:58:48.479Z,4.37
2019-05-09T03:03:11.071Z,4.10
2019-05-09T03:07:21.419Z,4.27
2019-05-09T03:11:29.515Z,8.30
2019-05-09T03:15:39.381Z,3.93
2019-05-09T03:19:48.775Z,3.20
2019-05-09T03:23:59.119Z,3.83
2019-05-09T03:28:12.860Z,3.90
2019-05-09T03:32:21.163Z,3.67
2019-05-09T03:36:29.668Z,3.67
2019-05-09T03:40:38.003Z,3.27
2019-05-09T03:44:47.729Z,4.00
2019-05-09T03:48:58.249Z,3.97
2019-05-09T03:53:08.391Z,4.00
2019-05-09T03:57:24.747Z,3.73
2019-05-09T04:01:32.723Z,3.63
2019-05-09T04:05:54.463Z,2.93
2019-05-09T04:09:49.892Z,2.90
2019-05-09T04:14:02.121Z,3.63
2019-05-09T04:18:09.689Z,5.40
2019-05-09T04:22:18.270Z,5.10
2019-05-09T04:26:45.562Z,7.00
2019-05-09T04:30:54.364Z,5.17
2019-05-09T04:35:02.584Z,4.40
2019-05-09T04:39:21.510Z,4.27
2019-05-09T04:43:34.298Z,3.70
2019-05-09T04:47:39.390Z,4.47
2019-05-09T04:51:44.452Z,3.93
2019-05-09T04:55:52.142Z,3.63
2019-05-09T05:00:00.366Z,4.00
2019-05-09T05:04:08.170Z,5.13
2019-05-09T05:08:18.014Z,4.33
2019-05-09T05:12:27.598Z,4.40
2019-05-09T05:16:34.987Z,6.27
2019-05-09T05:20:43.080Z,6.47
2019-05-09T05:24:55.919Z,7.60
2019-05-09T05:29:03.633Z,8.00
2019-05-09T05:33:29.743Z,9.20
2019-05-09T05:37:38.623Z,8.50
2019-05-09T05:41:48.429Z,9.93
2019-05-09T05:46:03.674Z,9.07
2019-05-09T05:50:11.595Z,11.07
2019-05-09T05:54:23.376Z,11.90
2019-05-09T05:58:31.333Z,10.27
2019-05-09T06:02:38.895Z,8.77
2019-05-09T06:06:48.108Z,9.60
2019-05-09T06:10:57.592Z,9.27
2019-05-09T06:15:07.555Z,8.93
2019-05-09T06:19:17.857Z,8.80
2019-05-09T06:23:28.166Z,7.80
2019-05-09T06:27:37.651Z,8.60
2019-05-09T06:31:48.168Z,8.60
2019-05-09T06:35:58.947Z,8.23
2019-05-09T06:40:08.127Z,8.27
2019-05-09T06:44:31.733Z,9.07
2019-05-09T06:48:39.993Z,5.37
2019-05-09T06:52:49.574Z,5.40
2019-05-09T06:56:58.458Z,3.93
2019-05-09T07:01:18.290Z,3.47
2019-05-09T07:05:48.145Z,3.97
2019-05-09T07:09:58.576Z,10.03
2019-05-09T07:14:08.386Z,4.10
2019-05-09T07:18:18.402Z,3.67
2019-05-09T07:22:44.620Z,4.80
2019-05-09T07:26:52.339Z,4.40
2019-05-09T07:31:19.256Z,3.03
2019-05-09T07:35:27.961Z,3.07
2019-05-09T07:39:37.829Z,2.80
2019-05-09T07:43:47.786Z,3.27
2019-05-09T07:47:58.137Z,3.00
2019-05-09T07:52:09.398Z,3.60
2019-05-09T07:56:15.415Z,4.03
2019-05-09T08:00:32.775Z,3.90
2019-05-09T08:04:40.763Z,2.90
2019-05-09T08:08:49.502Z,3.60
2019-05-09T08:12:58.645Z,2.97
2019-05-09T08:17:08.588Z,4.13
2019-05-09T08:21:18.033Z,4.20
2019-05-09T08:25:27.691Z,3.47
2019-05-09T08:29:35.512Z,3.90
2019-05-09T08:33:43.670Z,3.47
2019-05-09T08:37:51.641Z,3.07
2019-05-09T08:42:00.039Z,2.93
2019-05-09T08:46:08.302Z,3.30
2019-05-09T08:50:27.944Z,3.10
2019-05-09T08:54:48.415Z,3.53
2019-05-09T08:59:01.610Z,3.05
2019-05-09T09:03:07.762Z,6.93
2019-05-09T09:07:14.993Z,3.30
2019-05-09T09:11:23.201Z,3.60
2019-05-09T09:15:55.653Z,3.50
2019-05-09T09:19:40.718Z,3.30
2019-05-09T09:23:50.776Z,3.60
2019-05-09T09:27:58.604Z,3.90
2019-05-09T09:32:08.250Z,4.13
2019-05-09T09:36:17.868Z,4.00
2019-05-09T09:40:27.795Z,3.80
2019-05-09T09:44:35.099Z,3.20
2019-05-09T09:48:44.537Z,2.93
2019-05-09T09:52:52.412Z,3.50
2019-05-09T09:57:00.887Z,3.03
2019-05-09T10:01:24.512Z,3.20
2019-05-09T10:05:32.139Z,3.57
2019-05-09T10:09:40.397Z,3.30
2019-05-09T10:13:51.754Z,4.00
2019-05-09T10:18:07.473Z,3.60
2019-05-09T10:22:24.219Z,4.10
2019-05-09T10:26:28.546Z,4.07
2019-05-09T10:30:38.282Z,4.53
2019-05-09T10:34:48.848Z,3.80
2019-05-09T10:38:58.183Z,3.17
2019-05-09T10:43:34.558Z,3.50
2019-05-09T10:47:33.261Z,3.05
2019-05-09T10:51:41.509Z,3.73
2019-05-09T10:55:49.424Z,3.53
2019-05-09T10:59:57.987Z,3.83
2019-05-09T11:04:08.131Z,3.40
2019-05-09T11:08:18.466Z,3.97
2019-05-09T11:12:27.603Z,3.57
2019-05-09T11:16:45.484Z,3.63
2019-05-09T11:20:45.911Z,3.70
2019-05-09T11:24:53.874Z,3.57
2019-05-09T11:29:02.659Z,3.23
2019-05-09T11:33:10.389Z,3.80
2019-05-09T11:37:18.080Z,4.67
2019-05-09T11:41:29.051Z,3.87
2019-05-09T11:45:35.120Z,4.77
2019-05-09T11:49:43.078Z,4.20
2019-05-09T11:53:51.226Z,4.40
2019-05-09T11:57:59.274Z,4.80
2019-05-09T12:02:08.851Z,4.33
2019-05-09T12:06:20.214Z,5.20
2019-05-09T12:10:28.705Z,4.40
2019-05-09T12:14:38.205Z,4.00
2019-05-09T12:18:48.510Z,4.30
2019-05-09T12:22:58.203Z,3.90
2019-05-09T12:27:08.539Z,4.00
2019-05-09T12:31:18.071Z,4.13
2019-05-09T12:35:26.479Z,4.07
2019-05-09T12:39:34.181Z,4.43
2019-05-09T12:43:41.824Z,4.20
2019-05-09T12:48:05.190Z,4.77
2019-05-09T12:51:59.636Z,4.87
2019-05-09T12:56:08.149Z,4.77
2019-05-09T13:00:18.686Z,4.17
2019-05-09T13:04:28.302Z,4.43
2019-05-09T13:08:38.308Z,3.90
2019-05-09T13:12:48.486Z,4.67
2019-05-09T13:17:04.774Z,3.30
2019-05-09T13:21:12.777Z,3.73
2019-05-09T13:25:20.644Z,4.30
2019-05-09T13:29:29.639Z,5.10
2019-05-09T13:33:40.948Z,4.20
2019-05-09T13:37:49.297Z,5.03
2019-05-09T13:41:58.312Z,4.83
2019-05-09T13:46:09.011Z,5.40
2019-05-09T13:50:18.617Z,3.93
2019-05-09T13:54:28.563Z,5.30
2019-05-09T13:58:38.460Z,3.97
2019-05-09T14:02:48.817Z,5.60
2019-05-09T14:07:54.781Z,5.53
2019-05-09T14:12:00.194Z,5.77
2019-05-09T14:16:19.909Z,5.10
2019-05-09T14:20:18.005Z,5.33
2019-05-09T14:24:27.879Z,4.60
2019-05-09T14:28:36.148Z,5.70
2019-05-09T14:32:43.758Z,5.67
2019-05-09T14:36:52.477Z,4.80
2019-05-09T14:41:00.173Z,4.80
2019-05-09T14:45:08.589Z,4.43
2019-05-09T14:49:17.857Z,4.67
2019-05-09T14:53:28.148Z,4.73
2019-05-09T14:57:38.187Z,4.57
2019-05-09T15:01:45.931Z,4.73
2019-05-09T15:05:53.727Z,4.60
2019-05-09T15:10:01.843Z,4.30
2019-05-09T15:14:10.241Z,4.87
2019-05-09T15:18:17.777Z,4.60
2019-05-09T15:22:28.379Z,5.17
2019-05-09T15:26:37.292Z,3.97
2019-05-09T15:30:44.874Z,4.80
2019-05-09T15:34:52.682Z,4.60
2019-05-09T15:39:00.378Z,5.10
2019-05-09T15:43:08.505Z,5.17
2019-05-09T15:47:20.950Z,4.30
2019-05-09T15:51:32.033Z,4.67
2019-05-09T15:55:38.408Z,6.33
2019-05-09T15:59:47.953Z,5.67
2019-05-09T16:03:55.551Z,5.90
2019-05-09T16:08:04.363Z,5.70
2019-05-09T16:12:12.123Z,7.30
2019-05-09T16:16:19.709Z,6.47
2019-05-09T16:20:37.189Z,8.73
2019-05-09T16:24:38.099Z,8.37
2019-05-09T16:28:48.583Z,7.27
2019-05-09T16:32:55.846Z,5.63
2019-05-09T16:37:03.432Z,6.47
2019-05-09T16:41:11.651Z,7.03
2019-05-09T16:45:20.920Z,7.23
2019-05-09T16:49:29.319Z,8.50
2019-05-09T16:53:37.655Z,6.87
2019-05-09T16:57:45.599Z,6.60
2019-05-09T17:01:53.792Z,6.60
2019-05-09T17:06:02.109Z,6.80
2019-05-09T17:10:10.054Z,7.20
2019-05-09T17:14:19.312Z,10.17
2019-05-09T17:18:28.387Z,7.57
2019-05-09T17:23:06.893Z,7.27
2019-05-09T17:27:03.574Z,7.87
2019-05-09T17:31:11.486Z,8.80
2019-05-09T17:35:19.727Z,7.80
2019-05-09T17:39:27.999Z,9.20
2019-05-09T17:43:38.223Z,9.47
2019-05-09T17:47:45.510Z,9.07
2019-05-09T17:51:53.643Z,17.30
2019-05-09T17:56:01.736Z,10.97
2019-05-09T18:00:11.450Z,12.27
2019-05-09T18:04:19.829Z,11.83
2019-05-09T18:08:28.381Z,9.27
2019-05-09T18:12:38.384Z,9.77
2019-05-09T18:16:47.832Z,9.13
2019-05-09T18:20:57.823Z,9.87
2019-05-09T18:25:08.333Z,10.53
2019-05-09T18:29:17.936Z,9.37
2019-05-09T18:33:31.826Z,9.03
2019-05-09T18:37:39.707Z,9.60
2019-05-09T18:41:48.402Z,9.60
2019-05-09T18:45:57.729Z,9.00
2019-05-09T18:50:07.795Z,11.90
2019-05-09T18:54:15.452Z,10.20
2019-05-09T18:58:23.896Z,11.70
2019-05-09T19:02:31.883Z,9.70
2019-05-09T19:06:40.537Z,14.50
2019-05-09T19:10:52.225Z,13.30
2019-05-09T19:14:59.094Z,17.67
2019-05-09T19:19:28.628Z,13.37
2019-05-09T19:23:36.325Z,11.53
2019-05-09T19:27:44.965Z,15.30
2019-05-09T19:31:53.134Z,11.63
2019-05-09T19:36:00.705Z,12.70
2019-05-09T19:40:09.320Z,12.93
2019-05-09T19:44:17.155Z,13.37
2019-05-09T19:48:25.361Z,14.53
2019-05-09T19:52:38.283Z,15.07
2019-05-09T19:56:43.218Z,14.23
2019-05-09T20:00:51.557Z,14.77
2019-05-09T20:04:59.648Z,15.43
2019-05-09T20:09:13.216Z,15.13
2019-05-09T20:13:34.522Z,15.53
2019-05-09T20:17:42.360Z,15.67
2019-05-09T20:21:50.670Z,14.90
2019-05-09T20:25:58.996Z,17.40
2019-05-09T20:30:07.021Z,15.90
2019-05-09T20:34:15.217Z,16.53
2019-05-09T20:38:23.635Z,15.80
2019-05-09T20:42:31.660Z,15.03
2019-05-09T20:46:40.178Z,13.77
2019-05-09T20:50:47.808Z,14.43
2019-05-09T20:54:56.017Z,14.63
2019-05-09T20:59:04.118Z,14.37
2019-05-09T21:03:11.926Z,15.00
2019-05-09T21:07:20.252Z,14.00
2019-05-09T21:11:29.887Z,12.27
2019-05-09T21:15:38.522Z,11.70
2019-05-09T21:19:46.551Z,12.70
2019-05-09T21:23:55.078Z,13.37
2019-05-09T21:28:03.002Z,13.93
2019-05-09T21:32:11.422Z,13.33
2019-05-09T21:36:19.535Z,12.23
2019-05-09T21:40:27.133Z,12.07
2019-05-09T21:44:34.965Z,11.23
2019-05-09T21:48:42.698Z,11.70
2019-05-09T21:52:50.481Z,11.73
2019-05-09T21:56:58.697Z,12.27
2019-05-09T22:01:08.755Z,11.10
2019-05-09T22:05:19.421Z,11.27
2019-05-09T22:09:27.762Z,9.83
2019-05-09T22:13:35.520Z,10.13
2019-05-09T22:17:44.164Z,12.20
2019-05-09T22:21:52.414Z,10.40
2019-05-09T22:26:03.171Z,9.63
2019-05-09T22:30:12.491Z,9.80
2019-05-09T22:34:20.860Z,10.53
2019-05-09T22:38:28.557Z,10.17
2019-05-09T22:42:37.015Z,10.10
2019-05-09T22:46:45.220Z,10.10
2019-05-09T22:50:52.820Z,10.43
2019-05-09T22:55:02.596Z,10.07
2019-05-09T22:59:10.551Z,11.60
2019-05-09T23:03:18.798Z,10.33
2019-05-09T23:07:27.178Z,10.37
2019-05-09T23:11:35.045Z,11.30
2019-05-09T23:15:43.270Z,11.23
2019-05-09T23:19:52.095Z,11.43
2019-05-09T23:24:05.423Z,10.73
2019-05-09T23:28:13.672Z,10.70
2019-05-09T23:32:30.637Z,11.67
2019-05-09T23:36:38.279Z,10.77
2019-05-09T23:40:46.405Z,11.97
2019-05-09T23:44:54.106Z,12.50
2019-05-09T23:49:01.740Z,14.03
2019-05-09T23:53:10.139Z,13.90
2019-05-09T23:57:35.341Z,13.30
